Terminal Aerodrome Forecast
Issued by NWS

Home | Current Version | Previous Version | Text Only | Print | Product List | Glossary On
Versions: 1 2 3 4 5 6 7 8 9 10 11 12 13 14 15 16 17 18 19 20 21 22 23 24 25 26 27 28 29 30 31 32 33
000
FTUS44 KFWD 281723
TAFAFW
TAF
KAFW 281723Z 2818/0118 04005KT 4SM -FZDZ BR BKN007 OVC012
      TEMPO 2818/2821 1 1/2SM -FZDZ BR OVC007
     FM282100 08008KT 4SM -RA BR OVC006
     FM010000 06005KT 2SM -DZ BR OVC003
      TEMPO 0111/0114 3SM BR SCT003 OVC006=

USA.gov is the U.S. government's official web portal to all federal, state and local government web resources and services.